sensor_id;sensor_type;location;lat;lon;timestamp;pressure;altitude;pressure_sealevel;temperature;humidity
64679;BME280;51094;53.864;27.676;2023-03-12T00:00:14;96967.84;;;-1.09;76.10
64679;BME280;51094;53.864;27.676;2023-03-12T00:02:41;96947.00;;;-1.16;75.78
64679;BME280;51094;53.864;27.676;2023-03-12T00:05:09;96887.03;;;-1.50;74.85
64679;BME280;51094;53.864;27.676;2023-03-12T00:07:36;96974.69;;;-0.95;75.82
64679;BME280;51094;53.864;27.676;2023-03-12T00:10:04;96944.38;;;-1.14;74.40
64679;BME280;51094;53.864;27.676;2023-03-12T00:12:31;96972.59;;;-1.03;73.54
64679;BME280;51094;53.864;27.676;2023-03-12T00:14:58;96885.75;;;-1.71;73.79
64679;BME280;51094;53.864;27.676;2023-03-12T00:17:28;96965.88;;;-1.47;72.99
64679;BME280;51094;53.864;27.676;2023-03-12T00:19:56;96983.81;;;-1.34;74.30
64679;BME280;51094;53.864;27.676;2023-03-12T00:22:23;96988.25;;;-1.09;73.91
64679;BME280;51094;53.864;27.676;2023-03-12T00:24:52;96999.47;;;-1.12;73.54
64679;BME280;51094;53.864;27.676;2023-03-12T00:27:19;96940.38;;;-1.75;72.38
64679;BME280;51094;53.864;27.676;2023-03-12T00:29:46;97028.53;;;-1.14;73.48
64679;BME280;51094;53.864;27.676;2023-03-12T00:32:13;97023.53;;;-1.02;74.31
64679;BME280;51094;53.864;27.676;2023-03-12T00:34:41;97040.34;;;-0.85;73.86
64679;BME280;51094;53.864;27.676;2023-03-12T00:37:07;97040.66;;;-0.89;72.42
64679;BME280;51094;53.864;27.676;2023-03-12T00:39:35;96956.66;;;-1.49;72.53
64679;BME280;51094;53.864;27.676;2023-03-12T00:42:02;97064.63;;;-0.92;73.14
64679;BME280;51094;53.864;27.676;2023-03-12T00:44:29;97063.78;;;-0.92;72.83
64679;BME280;51094;53.864;27.676;2023-03-12T00:46:57;97067.00;;;-0.89;72.42
64679;BME280;51094;53.864;27.676;2023-03-12T00:49:24;97057.13;;;-0.95;71.71
64679;BME280;51094;53.864;27.676;2023-03-12T00:51:50;97059.34;;;-0.89;73.06
64679;BME280;51094;53.864;27.676;2023-03-12T00:54:17;97054.38;;;-0.78;72.99
64679;BME280;51094;53.864;27.676;2023-03-12T00:56:45;96978.91;;;-1.37;72.12
64679;BME280;51094;53.864;27.676;2023-03-12T00:59:14;97109.97;;;-0.83;72.84
64679;BME280;51094;53.864;27.676;2023-03-12T01:01:41;97022.16;;;-1.07;72.57
64679;BME280;51094;53.864;27.676;2023-03-12T01:04:08;97089.31;;;-0.92;70.08
64679;BME280;51094;53.864;27.676;2023-03-12T01:06:36;97004.38;;;-1.51;71.57
64679;BME280;51094;53.864;27.676;2023-03-12T01:09:04;97083.22;;;-0.90;72.37
64679;BME280;51094;53.864;27.676;2023-03-12T01:11:32;97006.69;;;-1.32;71.93
64679;BME280;51094;53.864;27.676;2023-03-12T01:14:00;97040.91;;;-1.22;70.98
64679;BME280;51094;53.864;27.676;2023-03-12T01:16:28;97063.31;;;-1.13;70.54
64679;BME280;51094;53.864;27.676;2023-03-12T01:18:57;97101.25;;;-0.93;71.39
64679;BME280;51094;53.864;27.676;2023-03-12T01:21:25;97104.53;;;-0.91;71.11
64679;BME280;51094;53.864;27.676;2023-03-12T01:23:54;97105.59;;;-1.09;70.02
64679;BME280;51094;53.864;27.676;2023-03-12T01:26:21;97107.03;;;-1.19;70.94
64679;BME280;51094;53.864;27.676;2023-03-12T01:28:49;97108.66;;;-1.18;71.27
64679;BME280;51094;53.864;27.676;2023-03-12T01:31:17;97114.50;;;-1.16;71.27
64679;BME280;51094;53.864;27.676;2023-03-12T01:33:48;97045.66;;;-1.75;70.74
64679;BME280;51094;53.864;27.676;2023-03-12T01:36:18;97090.25;;;-1.38;69.54
64679;BME280;51094;53.864;27.676;2023-03-12T01:38:45;97136.88;;;-1.21;70.26
64679;BME280;51094;53.864;27.676;2023-03-12T01:41:13;97099.72;;;-1.40;70.14
64679;BME280;51094;53.864;27.676;2023-03-12T01:43:40;97133.44;;;-1.20;70.80
64679;BME280;51094;53.864;27.676;2023-03-12T01:46:33;97145.66;;;-1.11;69.91
64679;BME280;51094;53.864;27.676;2023-03-12T01:54:10;97150.59;;;-1.08;69.08
64679;BME280;51094;53.864;27.676;2023-03-12T01:56:40;97061.56;;;-1.71;68.58
64679;BME280;51094;53.864;27.676;2023-03-12T01:59:13;97164.50;;;-1.14;68.90
64679;BME280;51094;53.864;27.676;2023-03-12T02:01:43;97029.75;;;-1.94;68.54
64679;BME280;51094;53.864;27.676;2023-03-12T02:04:11;97173.25;;;-1.18;68.17
64679;BME280;51094;53.864;27.676;2023-03-12T02:09:32;97195.28;;;-1.17;68.12
64679;BME280;51094;53.864;27.676;2023-03-12T02:12:01;97106.44;;;-1.69;67.32
64679;BME280;51094;53.864;27.676;2023-03-12T02:14:28;97132.31;;;-1.60;67.32
64679;BME280;51094;53.864;27.676;2023-03-12T02:16:55;97171.56;;;-1.33;67.65
64679;BME280;51094;53.864;27.676;2023-03-12T02:22:09;97196.59;;;-1.40;67.55
64679;BME280;51094;53.864;27.676;2023-03-12T02:24:52;97152.47;;;-1.72;67.69
64679;BME280;51094;53.864;27.676;2023-03-12T02:27:20;97213.53;;;-1.39;67.00
64679;BME280;51094;53.864;27.676;2023-03-12T02:29:48;97205.31;;;-1.44;66.28
64679;BME280;51094;53.864;27.676;2023-03-12T02:32:23;97121.53;;;-2.11;66.49
64679;BME280;51094;53.864;27.676;2023-03-12T02:34:52;97195.78;;;-1.56;67.32
64679;BME280;51094;53.864;27.676;2023-03-12T02:37:19;97178.78;;;-1.71;67.09
64679;BME280;51094;53.864;27.676;2023-03-12T02:39:52;97186.41;;;-1.71;67.00
64679;BME280;51094;53.864;27.676;2023-03-12T02:42:23;97116.06;;;-2.19;67.59
64679;BME280;51094;53.864;27.676;2023-03-12T02:44:50;97220.38;;;-1.55;67.39
64679;BME280;51094;53.864;27.676;2023-03-12T02:47:18;97195.19;;;-1.61;67.85
64679;BME280;51094;53.864;27.676;2023-03-12T02:49:45;97181.31;;;-1.71;66.81
64679;BME280;51094;53.864;27.676;2023-03-12T02:52:12;97240.59;;;-1.36;66.40
64679;BME280;51094;53.864;27.676;2023-03-12T02:54:39;97187.00;;;-1.66;67.08
64679;BME280;51094;53.864;27.676;2023-03-12T02:57:05;97239.47;;;-1.16;67.22
64679;BME280;51094;53.864;27.676;2023-03-12T02:59:33;97239.94;;;-1.10;66.92
64679;BME280;51094;53.864;27.676;2023-03-12T03:02:02;97150.38;;;-1.79;65.90
64679;BME280;51094;53.864;27.676;2023-03-12T03:04:30;97131.63;;;-1.94;66.21
64679;BME280;51094;53.864;27.676;2023-03-12T03:06:57;97275.25;;;-1.18;66.66
64679;BME280;51094;53.864;27.676;2023-03-12T03:09:24;97282.81;;;-1.16;66.17
64679;BME280;51094;53.864;27.676;2023-03-12T03:11:51;97223.50;;;-1.50;65.40
64679;BME280;51094;53.864;27.676;2023-03-12T03:14:20;97280.47;;;-1.51;65.09
64679;BME280;51094;53.864;27.676;2023-03-12T03:16:49;97281.28;;;-1.50;65.49
64679;BME280;51094;53.864;27.676;2023-03-12T03:19:16;97278.06;;;-1.54;66.00
64679;BME280;51094;53.864;27.676;2023-03-12T03:21:43;97274.38;;;-1.64;65.85
64679;BME280;51094;53.864;27.676;2023-03-12T03:24:10;97201.88;;;-2.21;66.15
64679;BME280;51094;53.864;27.676;2023-03-12T03:26:37;97283.75;;;-1.64;66.57
64679;BME280;51094;53.864;27.676;2023-03-12T03:29:04;97191.66;;;-2.37;66.28
64679;BME280;51094;53.864;27.676;2023-03-12T03:31:31;97153.84;;;-2.60;65.94
64679;BME280;51094;53.864;27.676;2023-03-12T03:33:58;97301.16;;;-1.88;66.30
64679;BME280;51094;53.864;27.676;2023-03-12T03:36:25;97305.06;;;-1.98;66.50
64679;BME280;51094;53.864;27.676;2023-03-12T03:39:03;97250.03;;;-2.34;66.83
64679;BME280;51094;53.864;27.676;2023-03-12T03:41:30;97305.38;;;-2.05;66.99
64679;BME280;51094;53.864;27.676;2023-03-12T03:43:58;97285.06;;;-2.22;67.89
64679;BME280;51094;53.864;27.676;2023-03-12T03:46:27;97218.28;;;-2.60;67.74
64679;BME280;51094;53.864;27.676;2023-03-12T03:49:00;97232.13;;;-2.65;67.91
64679;BME280;51094;53.864;27.676;2023-03-12T03:51:28;97327.38;;;-2.19;68.79
64679;BME280;51094;53.864;27.676;2023-03-12T03:53:59;97317.41;;;-2.24;68.62
64679;BME280;51094;53.864;27.676;2023-03-12T03:56:27;97226.22;;;-2.83;69.20
64679;BME280;51094;53.864;27.676;2023-03-12T03:58:56;97227.66;;;-2.95;69.27
64679;BME280;51094;53.864;27.676;2023-03-12T04:01:24;97328.50;;;-2.42;69.57
64679;BME280;51094;53.864;27.676;2023-03-12T04:03:51;97337.78;;;-2.41;69.79
64679;BME280;51094;53.864;27.676;2023-03-12T04:06:18;97329.47;;;-2.45;69.73
64679;BME280;51094;53.864;27.676;2023-03-12T04:08:45;97295.44;;;-2.77;70.33
64679;BME280;51094;53.864;27.676;2023-03-12T04:11:18;97357.31;;;-2.76;70.15
64679;BME280;51094;53.864;27.676;2023-03-12T04:13:45;97348.34;;;-2.66;70.72
64679;BME280;51094;53.864;27.676;2023-03-12T04:16:15;97249.06;;;-3.35;70.45
64679;BME280;51094;53.864;27.676;2023-03-12T04:18:43;97330.72;;;-2.88;70.32
64679;BME280;51094;53.864;27.676;2023-03-12T04:21:12;97327.03;;;-2.99;70.63
64679;BME280;51094;53.864;27.676;2023-03-12T04:23:40;97310.75;;;-3.13;70.64
64679;BME280;51094;53.864;27.676;2023-03-12T04:26:09;97334.59;;;-2.98;70.68
64679;BME280;51094;53.864;27.676;2023-03-12T04:28:37;97369.34;;;-2.80;70.86
64679;BME280;51094;53.864;27.676;2023-03-12T04:31:06;97383.84;;;-2.82;70.54
64679;BME280;51094;53.864;27.676;2023-03-12T04:33:47;97306.03;;;-3.39;70.56
64679;BME280;51094;53.864;27.676;2023-03-12T04:36:15;97236.78;;;-3.80;70.21
64679;BME280;51094;53.864;27.676;2023-03-12T04:38:45;97349.97;;;-3.18;70.76
64679;BME280;51094;53.864;27.676;2023-03-12T04:41:14;97306.53;;;-3.50;70.17
64679;BME280;51094;53.864;27.676;2023-03-12T04:43:46;97388.81;;;-2.97;70.71
64679;BME280;51094;53.864;27.676;2023-03-12T04:46:14;97336.03;;;-3.28;70.04
64679;BME280;51094;53.864;27.676;2023-03-12T04:48:43;97255.59;;;-3.84;70.10
64679;BME280;51094;53.864;27.676;2023-03-12T04:51:11;97380.69;;;-3.04;70.03
64679;BME280;51094;53.864;27.676;2023-03-12T04:53:38;97317.72;;;-3.54;70.13
64679;BME280;51094;53.864;27.676;2023-03-12T04:56:08;97367.56;;;-3.14;70.07
64679;BME280;51094;53.864;27.676;2023-03-12T04:58:37;97354.50;;;-3.25;69.40
64679;BME280;51094;53.864;27.676;2023-03-12T05:01:04;97403.41;;;-3.01;69.79
64679;BME280;51094;53.864;27.676;2023-03-12T05:03:31;97312.28;;;-3.46;69.29
64679;BME280;51094;53.864;27.676;2023-03-12T05:06:01;97385.22;;;-3.11;69.96
64679;BME280;51094;53.864;27.676;2023-03-12T05:08:29;97379.16;;;-3.08;70.33
64679;BME280;51094;53.864;27.676;2023-03-12T05:10:56;97329.03;;;-3.42;69.97
64679;BME280;51094;53.864;27.676;2023-03-12T05:13:23;97337.97;;;-3.33;70.37
64679;BME280;51094;53.864;27.676;2023-03-12T05:15:54;97315.28;;;-3.38;70.15
64679;BME280;51094;53.864;27.676;2023-03-12T05:18:21;97391.91;;;-2.91;69.66
64679;BME280;51094;53.864;27.676;2023-03-12T05:21:03;97295.47;;;-3.67;70.03
64679;BME280;51094;53.864;27.676;2023-03-12T05:23:30;97377.38;;;-3.25;70.85
64679;BME280;51094;53.864;27.676;2023-03-12T05:25:57;97399.50;;;-3.08;70.38
64679;BME280;51094;53.864;27.676;2023-03-12T05:28:25;97402.56;;;-3.02;71.05
64679;BME280;51094;53.864;27.676;2023-03-12T05:30:59;97089.63;;;-4.93;71.05
64679;BME280;51094;53.864;27.676;2023-03-12T05:33:27;97409.72;;;-2.91;70.82
64679;BME280;51094;53.864;27.676;2023-03-12T05:35:57;97245.72;;;-3.90;70.75
64679;BME280;51094;53.864;27.676;2023-03-12T05:38:24;97220.75;;;-4.18;70.60
64679;BME280;51094;53.864;27.676;2023-03-12T05:40:56;97406.50;;;-2.94;70.76
64679;BME280;51094;53.864;27.676;2023-03-12T05:43:27;97345.03;;;-3.40;70.79
64679;BME280;51094;53.864;27.676;2023-03-12T05:45:59;97359.94;;;-3.32;71.02
64679;BME280;51094;53.864;27.676;2023-03-12T05:48:26;97379.66;;;-3.19;71.21
64679;BME280;51094;53.864;27.676;2023-03-12T05:50:54;97408.66;;;-3.04;71.13
64679;BME280;51094;53.864;27.676;2023-03-12T05:53:22;97414.69;;;-3.07;72.03
64679;BME280;51094;53.864;27.676;2023-03-12T05:55:49;97417.25;;;-3.07;71.83
64679;BME280;51094;53.864;27.676;2023-03-12T05:58:16;97317.50;;;-3.68;71.96
64679;BME280;51094;53.864;27.676;2023-03-12T06:00:43;97328.16;;;-3.60;71.51
64679;BME280;51094;53.864;27.676;2023-03-12T06:03:12;97349.59;;;-3.47;71.56
64679;BME280;51094;53.864;27.676;2023-03-12T06:05:40;97420.16;;;-2.97;71.49
64679;BME280;51094;53.864;27.676;2023-03-12T06:08:07;97344.06;;;-3.38;71.82
64679;BME280;51094;53.864;27.676;2023-03-12T06:10:37;97413.63;;;-2.84;71.36
64679;BME280;51094;53.864;27.676;2023-03-12T06:13:05;97417.47;;;-2.75;70.83
64679;BME280;51094;53.864;27.676;2023-03-12T06:15:32;97430.88;;;-2.72;71.08
64679;BME280;51094;53.864;27.676;2023-03-12T06:17:59;97425.44;;;-2.64;70.92
64679;BME280;51094;53.864;27.676;2023-03-12T06:20:27;97421.72;;;-2.76;71.00
64679;BME280;51094;53.864;27.676;2023-03-12T06:22:54;97444.66;;;-2.58;71.19
64679;BME280;51094;53.864;27.676;2023-03-12T06:25:22;97379.44;;;-3.14;71.51
64679;BME280;51094;53.864;27.676;2023-03-12T06:27:49;97426.69;;;-2.73;71.80
64679;BME280;51094;53.864;27.676;2023-03-12T06:30:17;97436.72;;;-2.88;71.15
64679;BME280;51094;53.864;27.676;2023-03-12T06:32:43;97290.19;;;-3.82;71.05
64679;BME280;51094;53.864;27.676;2023-03-12T06:35:10;97346.53;;;-3.17;71.63
64679;BME280;51094;53.864;27.676;2023-03-12T06:37:37;97243.09;;;-3.70;70.95
64679;BME280;51094;53.864;27.676;2023-03-12T06:40:05;97445.75;;;-2.11;70.38
64679;BME280;51094;53.864;27.676;2023-03-12T06:42:35;97306.41;;;-2.93;70.01
64679;BME280;51094;53.864;27.676;2023-03-12T06:45:02;97452.66;;;-1.78;69.77
64679;BME280;51094;53.864;27.676;2023-03-12T06:47:30;97209.56;;;-3.06;68.93
64679;BME280;51094;53.864;27.676;2023-03-12T06:49:57;97399.31;;;-1.65;68.81
64679;BME280;51094;53.864;27.676;2023-03-12T06:52:25;97439.94;;;-1.29;67.85
64679;BME280;51094;53.864;27.676;2023-03-12T06:54:52;97401.31;;;-1.55;68.26
64679;BME280;51094;53.864;27.676;2023-03-12T06:57:19;97455.75;;;-1.23;68.46
64679;BME280;51094;53.864;27.676;2023-03-12T06:59:46;97455.56;;;-1.36;68.17
64679;BME280;51094;53.864;27.676;2023-03-12T07:02:16;97397.66;;;-1.82;68.20
64679;BME280;51094;53.864;27.676;2023-03-12T07:04:43;97432.38;;;-1.31;68.99
64679;BME280;51094;53.864;27.676;2023-03-12T07:07:10;97437.50;;;-0.99;67.05
64679;BME280;51094;53.864;27.676;2023-03-12T07:09:37;97470.34;;;-1.09;67.27
64679;BME280;51094;53.864;27.676;2023-03-12T07:12:04;97441.78;;;-1.31;68.14
64679;BME280;51094;53.864;27.676;2023-03-12T07:14:31;97385.50;;;-1.77;68.66
64679;BME280;51094;53.864;27.676;2023-03-12T07:16:58;97459.41;;;-1.44;68.81
64679;BME280;51094;53.864;27.676;2023-03-12T07:19:27;97424.19;;;-1.86;69.39
64679;BME280;51094;53.864;27.676;2023-03-12T07:21:56;97417.38;;;-1.86;69.63
64679;BME280;51094;53.864;27.676;2023-03-12T07:24:23;97473.13;;;-1.47;69.75
64679;BME280;51094;53.864;27.676;2023-03-12T07:26:50;97480.50;;;-1.25;69.11
64679;BME280;51094;53.864;27.676;2023-03-12T07:29:17;97302.38;;;-2.28;68.93
64679;BME280;51094;53.864;27.676;2023-03-12T07:31:44;97373.63;;;-1.29;68.67
64679;BME280;51094;53.864;27.676;2023-03-12T07:34:11;97479.38;;;-0.41;67.46
64679;BME280;51094;53.864;27.676;2023-03-12T07:36:38;97454.72;;;-0.72;66.83
64679;BME280;51094;53.864;27.676;2023-03-12T07:39:05;97476.94;;;-0.58;67.29
64679;BME280;51094;53.864;27.676;2023-03-12T07:41:32;97491.44;;;-0.58;67.29
64679;BME280;51094;53.864;27.676;2023-03-12T07:44:00;97479.66;;;-0.61;67.54
64679;BME280;51094;53.864;27.676;2023-03-12T07:46:27;97399.91;;;-0.96;66.95
64679;BME280;51094;53.864;27.676;2023-03-12T07:48:55;97475.00;;;-0.23;67.28
64679;BME280;51094;53.864;27.676;2023-03-12T07:51:22;97475.66;;;-0.19;66.53
64679;BME280;51094;53.864;27.676;2023-03-12T07:53:49;97404.50;;;-0.71;65.72
64679;BME280;51094;53.864;27.676;2023-03-12T07:56:16;97475.47;;;0.14;65.87
64679;BME280;51094;53.864;27.676;2023-03-12T07:58:44;97465.00;;;0.18;66.01
64679;BME280;51094;53.864;27.676;2023-03-12T08:01:12;97446.81;;;0.09;64.94
64679;BME280;51094;53.864;27.676;2023-03-12T08:03:39;97480.66;;;0.42;64.86
64679;BME280;51094;53.864;27.676;2023-03-12T08:06:07;97438.84;;;0.43;63.43
64679;BME280;51094;53.864;27.676;2023-03-12T08:08:35;97452.91;;;0.64;63.84
64679;BME280;51094;53.864;27.676;2023-03-12T08:11:04;97450.25;;;0.94;63.30
64679;BME280;51094;53.864;27.676;2023-03-12T08:13:31;97458.09;;;1.06;63.80
64679;BME280;51094;53.864;27.676;2023-03-12T08:15:58;97425.91;;;1.16;61.62
64679;BME280;51094;53.864;27.676;2023-03-12T08:18:25;97451.31;;;1.46;61.46
64679;BME280;51094;53.864;27.676;2023-03-12T08:20:53;97408.63;;;1.05;60.63
64679;BME280;51094;53.864;27.676;2023-03-12T08:23:20;97462.19;;;1.22;60.95
64679;BME280;51094;53.864;27.676;2023-03-12T08:25:48;97455.44;;;1.21;60.77
64679;BME280;51094;53.864;27.676;2023-03-12T08:28:16;97454.38;;;0.83;60.69
64679;BME280;51094;53.864;27.676;2023-03-12T08:30:49;97446.78;;;0.67;62.25
64679;BME280;51094;53.864;27.676;2023-03-12T08:33:16;97470.31;;;0.44;61.93
64679;BME280;51094;53.864;27.676;2023-03-12T08:35:43;97291.81;;;-0.35;62.10
64679;BME280;51094;53.864;27.676;2023-03-12T08:38:11;97466.78;;;0.60;61.21
64679;BME280;51094;53.864;27.676;2023-03-12T08:40:38;97429.13;;;0.91;61.84
64679;BME280;51094;53.864;27.676;2023-03-12T08:43:08;97456.41;;;1.60;60.16
64679;BME280;51094;53.864;27.676;2023-03-12T08:45:36;97462.50;;;1.45;59.90
64679;BME280;51094;53.864;27.676;2023-03-12T08:48:05;97374.78;;;0.73;60.80
64679;BME280;51094;53.864;27.676;2023-03-12T08:50:36;97464.50;;;1.40;60.56
64679;BME280;51094;53.864;27.676;2023-03-12T08:53:03;97295.31;;;0.21;61.09
64679;BME280;51094;53.864;27.676;2023-03-12T08:55:31;97394.25;;;0.76;62.10
64679;BME280;51094;53.864;27.676;2023-03-12T08:57:59;97466.16;;;0.71;63.03
64679;BME280;51094;53.864;27.676;2023-03-12T09:00:28;97451.00;;;0.40;64.08
64679;BME280;51094;53.864;27.676;2023-03-12T09:02:55;97464.22;;;0.46;65.50
64679;BME280;51094;53.864;27.676;2023-03-12T09:05:25;97454.28;;;0.56;65.96
64679;BME280;51094;53.864;27.676;2023-03-12T09:07:55;97398.00;;;0.27;65.47
64679;BME280;51094;53.864;27.676;2023-03-12T09:10:22;97449.34;;;0.39;66.38
64679;BME280;51094;53.864;27.676;2023-03-12T09:12:49;97447.72;;;0.08;67.49
64679;BME280;51094;53.864;27.676;2023-03-12T09:15:16;97435.84;;;-0.08;69.39
64679;BME280;51094;53.864;27.676;2023-03-12T09:17:43;97377.06;;;-0.38;69.95
64679;BME280;51094;53.864;27.676;2023-03-12T09:20:10;97459.63;;;0.23;69.38
64679;BME280;51094;53.864;27.676;2023-03-12T09:22:40;97467.41;;;-0.09;69.71
64679;BME280;51094;53.864;27.676;2023-03-12T09:25:09;97465.03;;;-0.12;70.44
64679;BME280;51094;53.864;27.676;2023-03-12T09:27:44;97405.16;;;-0.68;70.20
64679;BME280;51094;53.864;27.676;2023-03-12T09:30:14;97473.63;;;0.02;69.71
64679;BME280;51094;53.864;27.676;2023-03-12T09:32:41;97472.72;;;0.03;70.30
64679;BME280;51094;53.864;27.676;2023-03-12T09:35:11;97435.09;;;-0.10;69.49
64679;BME280;51094;53.864;27.676;2023-03-12T09:37:39;97447.34;;;-0.30;69.96
64679;BME280;51094;53.864;27.676;2023-03-12T09:40:09;97375.44;;;-0.84;72.63
64679;BME280;51094;53.864;27.676;2023-03-12T09:42:43;97473.34;;;0.06;75.40
64679;BME280;51094;53.864;27.676;2023-03-12T09:45:37;97469.13;;;0.21;73.11
64679;BME280;51094;53.864;27.676;2023-03-12T09:48:06;97475.06;;;0.21;73.01
64679;BME280;51094;53.864;27.676;2023-03-12T09:50:46;97409.06;;;-0.16;74.42
64679;BME280;51094;53.864;27.676;2023-03-12T09:53:37;97473.66;;;0.16;73.15
64679;BME280;51094;53.864;27.676;2023-03-12T09:56:13;97472.84;;;-0.15;75.47
64679;BME280;51094;53.864;27.676;2023-03-12T09:58:40;97467.50;;;-0.26;76.20
64679;BME280;51094;53.864;27.676;2023-03-12T10:01:31;97480.91;;;-0.07;74.32
64679;BME280;51094;53.864;27.676;2023-03-12T10:09:15;97491.47;;;0.17;72.71
64679;BME280;51094;53.864;27.676;2023-03-12T10:12:00;97415.34;;;-0.22;72.08
64679;BME280;51094;53.864;27.676;2023-03-12T10:17:38;97484.41;;;0.37;71.58
64679;BME280;51094;53.864;27.676;2023-03-12T10:20:25;97484.13;;;0.55;70.37
64679;BME280;51094;53.864;27.676;2023-03-12T10:23:06;97421.50;;;0.04;69.98
64679;BME280;51094;53.864;27.676;2023-03-12T10:25:42;97419.47;;;-0.19;69.30
64679;BME280;51094;53.864;27.676;2023-03-12T10:28:35;97493.47;;;0.42;69.24
64679;BME280;51094;53.864;27.676;2023-03-12T10:31:06;97506.47;;;0.23;68.24
64679;BME280;51094;53.864;27.676;2023-03-12T10:33:47;97526.19;;;0.06;67.88
64679;BME280;51094;53.864;27.676;2023-03-12T10:36:27;97502.00;;;-0.03;66.48
64679;BME280;51094;53.864;27.676;2023-03-12T10:38:55;97468.19;;;-0.38;68.00
64679;BME280;51094;53.864;27.676;2023-03-12T10:41:28;97466.00;;;-0.60;66.50
64679;BME280;51094;53.864;27.676;2023-03-12T10:44:00;97518.09;;;-0.32;65.96
64679;BME280;51094;53.864;27.676;2023-03-12T10:54:27;97474.56;;;0.59;63.26
64679;BME280;51094;53.864;27.676;2023-03-12T10:56:55;97508.75;;;1.56;60.65
64679;BME280;51094;53.864;27.676;2023-03-12T10:59:27;97400.28;;;1.82;59.24
64679;BME280;51094;53.864;27.676;2023-03-12T11:01:55;97443.53;;;2.26;57.09
64679;BME280;51094;53.864;27.676;2023-03-12T11:04:32;97472.34;;;1.78;57.56
64679;BME280;51094;53.864;27.676;2023-03-12T11:09:38;97472.09;;;1.00;61.10
64679;BME280;51094;53.864;27.676;2023-03-12T11:12:23;97506.06;;;0.88;60.35
64679;BME280;51094;53.864;27.676;2023-03-12T11:14:51;97503.25;;;0.64;62.31
64679;BME280;51094;53.864;27.676;2023-03-12T11:17:23;97488.13;;;0.31;62.41
64679;BME280;51094;53.864;27.676;2023-03-12T11:19:51;97479.28;;;0.07;62.97
64679;BME280;51094;53.864;27.676;2023-03-12T11:22:32;97509.16;;;0.50;63.07
64679;BME280;51094;53.864;27.676;2023-03-12T11:25:03;97516.69;;;0.68;63.28
64679;BME280;51094;53.864;27.676;2023-03-12T11:29:59;97478.28;;;1.24;60.21
64679;BME280;51094;53.864;27.676;2023-03-12T11:34:59;97498.59;;;1.54;60.17
64679;BME280;51094;53.864;27.676;2023-03-12T11:46:32;97319.06;;;4.12;50.15
64679;BME280;51094;53.864;27.676;2023-03-12T11:51:57;97469.94;;;7.05;45.31
64679;BME280;51094;53.864;27.676;2023-03-12T11:54:46;97501.38;;;6.80;45.96
64679;BME280;51094;53.864;27.676;2023-03-12T12:00:17;97505.81;;;6.47;43.25
64679;BME280;51094;53.864;27.676;2023-03-12T12:03:28;97511.34;;;6.43;43.08
64679;BME280;51094;53.864;27.676;2023-03-12T12:06:07;97434.50;;;5.82;42.13
64679;BME280;51094;53.864;27.676;2023-03-12T12:14:28;97463.84;;;3.66;45.87
64679;BME280;51094;53.864;27.676;2023-03-12T12:19:51;97541.59;;;4.17;45.98
64679;BME280;51094;53.864;27.676;2023-03-12T12:31:36;97276.47;;;9.60;34.09
64679;BME280;51094;53.864;27.676;2023-03-12T12:34:22;97528.97;;;11.20;31.98
64679;BME280;51094;53.864;27.676;2023-03-12T12:40:16;97515.47;;;14.92;29.67
64679;BME280;51094;53.864;27.676;2023-03-12T12:42:44;97514.31;;;16.05;27.60
64679;BME280;51094;53.864;27.676;2023-03-12T12:45:14;97518.56;;;15.55;24.55
64679;BME280;51094;53.864;27.676;2023-03-12T12:47:46;97494.97;;;13.51;25.53
64679;BME280;51094;53.864;27.676;2023-03-12T12:50:24;97528.97;;;11.96;25.55
64679;BME280;51094;53.864;27.676;2023-03-12T13:01:30;97470.09;;;9.88;27.35
64679;BME280;51094;53.864;27.676;2023-03-12T13:04:29;97538.28;;;9.36;28.53
64679;BME280;51094;53.864;27.676;2023-03-12T13:12:31;97569.28;;;4.73;32.17
64679;BME280;51094;53.864;27.676;2023-03-12T13:15:01;97447.75;;;2.40;34.75
64679;BME280;51094;53.864;27.676;2023-03-12T13:20:20;97679.81;;;1.22;53.80
64679;BME280;51094;53.864;27.676;2023-03-12T13:29:17;97733.22;;;-1.12;70.90
64679;BME280;51094;53.864;27.676;2023-03-12T13:31:39;97755.22;;;-1.64;72.04
64679;BME280;51094;53.864;27.676;2023-03-12T13:36:49;97626.06;;;-2.00;81.35
64679;BME280;51094;53.864;27.676;2023-03-12T13:39:33;97618.88;;;-0.87;80.00
64679;BME280;51094;53.864;27.676;2023-03-12T13:44:48;97653.97;;;0.97;66.95
64679;BME280;51094;53.864;27.676;2023-03-12T13:47:26;97679.47;;;1.43;65.90
64679;BME280;51094;53.864;27.676;2023-03-12T13:50:03;97691.97;;;1.19;61.99
64679;BME280;51094;53.864;27.676;2023-03-12T13:52:46;97681.81;;;0.87;56.04
64679;BME280;51094;53.864;27.676;2023-03-12T13:55:32;97675.81;;;1.75;59.86
64679;BME280;51094;53.864;27.676;2023-03-12T13:58:12;97636.50;;;3.47;57.29
64679;BME280;51094;53.864;27.676;2023-03-12T14:01:00;97669.94;;;4.81;46.09
64679;BME280;51094;53.864;27.676;2023-03-12T14:03:34;97677.13;;;4.41;43.38
64679;BME280;51094;53.864;27.676;2023-03-12T14:06:09;97678.44;;;4.94;48.01
64679;BME280;51094;53.864;27.676;2023-03-12T14:11:28;97672.50;;;7.25;44.61
64679;BME280;51094;53.864;27.676;2023-03-12T14:14:05;97681.22;;;7.54;37.37
64679;BME280;51094;53.864;27.676;2023-03-12T14:16:55;97587.97;;;5.77;39.14
64679;BME280;51094;53.864;27.676;2023-03-12T14:19:31;97689.25;;;6.46;36.49
64679;BME280;51094;53.864;27.676;2023-03-12T14:22:02;97691.28;;;6.09;36.75
64679;BME280;51094;53.864;27.676;2023-03-12T14:24:39;97677.06;;;5.58;38.39
64679;BME280;51094;53.864;27.676;2023-03-12T14:27:14;97656.69;;;4.98;37.15
64679;BME280;51094;53.864;27.676;2023-03-12T14:29:51;97685.47;;;4.08;39.84
64679;BME280;51094;53.864;27.676;2023-03-12T14:32:30;97744.06;;;3.01;42.33
64679;BME280;51094;53.864;27.676;2023-03-12T14:35:13;97694.50;;;1.63;49.88
64679;BME280;51094;53.864;27.676;2023-03-12T14:37:58;97697.63;;;-0.30;68.59
64679;BME280;51094;53.864;27.676;2023-03-12T14:40:39;97581.09;;;-1.48;73.55
64679;BME280;51094;53.864;27.676;2023-03-12T14:43:18;97785.31;;;-0.82;75.92
64679;BME280;51094;53.864;27.676;2023-03-12T14:45:49;97791.38;;;-1.02;77.46
64679;BME280;51094;53.864;27.676;2023-03-12T14:48:20;97793.25;;;-1.41;78.00
64679;BME280;51094;53.864;27.676;2023-03-12T14:50:48;97731.53;;;-2.04;79.89